Time;durP1;ratioP1;P1;durP2;ratioP2;P2;SDS_P1;SDS_P2;PMS_P1;PMS_P2;Temp;Humidity;BMP_temperature;BMP_pressure;BME280_temperature;BME280_humidity;BME280_pressure;Samples;Min_cycle;Max_cycle;Signal;HPM_P1;HPM_P2
2023/07/26 00:02:09;;;;;;;3.63;1.90;;;;;;;;;;5012148;28;20390;-71
2023/07/26 00:04:35;;;;;;;6.95;2.78;;;;;;;;;;5010589;28;20077;-71
2023/07/26 00:07:01;;;;;;;5.57;2.15;;;;;;;;;;5001537;28;20524;-70
2023/07/26 00:09:27;;;;;;;2.63;2.00;;;;;;;;;;5001247;28;20049;-71
2023/07/26 00:11:53;;;;;;;2.15;1.65;;;;;;;;;;5009216;28;20439;-71
2023/07/26 00:14:19;;;;;;;3.63;1.90;;;;;;;;;;5010264;28;20048;-71
2023/07/26 00:16:45;;;;;;;4.30;1.90;;;;;;;;;;5006314;28;20046;-71
2023/07/26 00:19:11;;;;;;;4.25;2.00;;;;;;;;;;5003190;28;20053;-71
2023/07/26 00:21:37;;;;;;;3.88;1.92;;;;;;;;;;5009907;28;20034;-71
2023/07/26 00:24:03;;;;;;;4.10;2.00;;;;;;;;;;4993855;28;20130;-71
2023/07/26 00:26:29;;;;;;;3.38;2.17;;;;;;;;;;5003526;28;20088;-71
2023/07/26 00:28:55;;;;;;;3.50;2.03;;;;;;;;;;5011497;28;20054;-71
2023/07/26 00:31:22;;;;;;;3.03;1.73;;;;;;;;;;5011233;28;20099;-71
2023/07/26 00:33:48;;;;;;;3.35;1.73;;;;;;;;;;5011358;28;20480;-71
2023/07/26 00:36:14;;;;;;;6.40;1.90;;;;;;;;;;5011407;28;20492;-71
2023/07/26 00:38:40;;;;;;;3.03;1.83;;;;;;;;;;5010857;28;20048;-71
2023/07/26 00:41:06;;;;;;;2.25;1.98;;;;;;;;;;5012431;28;20046;-70
2023/07/26 00:43:33;;;;;;;2.75;2.00;;;;;;;;;;5010437;28;20042;-71
2023/07/26 00:46:00;;;;;;;2.80;1.98;;;;;;;;;;5012732;28;20050;-71
2023/07/26 00:48:26;;;;;;;3.22;2.00;;;;;;;;;;5006733;28;20046;-71
2023/07/26 00:50:53;;;;;;;4.07;2.10;;;;;;;;;;5001967;28;20406;-71
2023/07/26 00:53:19;;;;;;;3.65;2.30;;;;;;;;;;5005628;28;20077;-71
2023/07/26 00:55:45;;;;;;;3.60;2.47;;;;;;;;;;5000874;28;20096;-71
2023/07/26 00:58:12;;;;;;;4.75;2.33;;;;;;;;;;5014213;28;20054;-71
2023/07/26 01:00:40;;;;;;;7.72;2.42;;;;;;;;;;5004568;28;20054;-71
2023/07/26 01:03:06;;;;;;;5.55;2.40;;;;;;;;;;4999578;28;20034;-71
2023/07/26 01:05:35;;;;;;;5.32;2.63;;;;;;;;;;5000348;28;20460;-71
2023/07/26 01:08:01;;;;;;;7.93;2.53;;;;;;;;;;4997209;28;20141;-71
2023/07/26 01:10:27;;;;;;;5.22;3.00;;;;;;;;;;5002485;28;20125;-71
2023/07/26 01:12:55;;;;;;;8.10;2.92;;;;;;;;;;4998922;28;20420;-71
2023/07/26 01:15:24;;;;;;;3.53;2.40;;;;;;;;;;5000658;28;20050;-71
2023/07/26 01:18:06;;;;;;;6.03;2.53;;;;;;;;;;4995198;28;20046;-71
2023/07/26 01:20:32;;;;;;;4.57;2.30;;;;;;;;;;4998058;28;20042;-71
2023/07/26 01:22:58;;;;;;;5.47;2.45;;;;;;;;;;5001234;28;20052;-71
2023/07/26 01:25:24;;;;;;;6.53;2.10;;;;;;;;;;4998616;28;20041;-71
2023/07/26 01:27:50;;;;;;;4.25;2.47;;;;;;;;;;4997317;28;20701;-71
2023/07/26 01:30:16;;;;;;;4.28;2.17;;;;;;;;;;5003285;28;20546;-71
2023/07/26 01:32:43;;;;;;;4.30;2.13;;;;;;;;;;4999770;28;20045;-71
2023/07/26 01:35:09;;;;;;;4.95;2.30;;;;;;;;;;5001698;28;20105;-71
2023/07/26 01:37:37;;;;;;;4.00;2.03;;;;;;;;;;5001625;28;20038;-71
2023/07/26 01:40:04;;;;;;;6.65;2.40;;;;;;;;;;5009137;28;20104;-71
2023/07/26 01:42:30;;;;;;;7.97;3.10;;;;;;;;;;5008516;28;20458;-71
2023/07/26 01:45:01;;;;;;;9.00;3.60;;;;;;;;;;5009565;28;20054;-71
2023/07/26 01:47:27;;;;;;;6.13;2.65;;;;;;;;;;5014902;28;20405;-71
2023/07/26 01:49:53;;;;;;;9.35;2.85;;;;;;;;;;5010954;28;20055;-71
2023/07/26 01:52:19;;;;;;;6.93;3.00;;;;;;;;;;5013376;28;20068;-71
2023/07/26 01:54:45;;;;;;;4.35;2.42;;;;;;;;;;5014594;28;20050;-71
2023/07/26 01:57:11;;;;;;;7.20;2.70;;;;;;;;;;5013441;28;20038;-71
2023/07/26 01:59:37;;;;;;;9.45;2.90;;;;;;;;;;5013773;28;20065;-71
2023/07/26 02:02:03;;;;;;;5.65;2.88;;;;;;;;;;5012622;28;20042;-71
2023/07/26 02:04:29;;;;;;;5.20;2.80;;;;;;;;;;5013461;28;20042;-71
2023/07/26 02:06:55;;;;;;;6.53;2.70;;;;;;;;;;5014067;28;20585;-71
2023/07/26 02:09:21;;;;;;;5.72;2.70;;;;;;;;;;5012655;28;20394;-71
2023/07/26 02:11:47;;;;;;;7.03;2.78;;;;;;;;;;5011849;28;20046;-71
2023/07/26 02:14:14;;;;;;;7.57;2.28;;;;;;;;;;5014360;28;20437;-71
2023/07/26 02:16:40;;;;;;;8.05;2.40;;;;;;;;;;5030051;28;20041;-71
2023/07/26 02:19:06;;;;;;;4.90;1.88;;;;;;;;;;5014064;28;20037;-71
2023/07/26 02:21:32;;;;;;;5.90;1.83;;;;;;;;;;5022519;28;20057;-71
2023/07/26 02:23:58;;;;;;;4.97;1.60;;;;;;;;;;5013661;28;20054;-71
2023/07/26 02:26:24;;;;;;;4.32;1.48;;;;;;;;;;5012802;28;20144;-71
2023/07/26 02:28:50;;;;;;;5.00;1.73;;;;;;;;;;5032884;28;20129;-71
2023/07/26 02:31:16;;;;;;;2.95;1.75;;;;;;;;;;4996972;28;20061;-71
2023/07/26 02:33:42;;;;;;;6.13;1.83;;;;;;;;;;5033145;28;20041;-71
2023/07/26 02:36:08;;;;;;;4.47;1.80;;;;;;;;;;5002890;28;20402;-71
2023/07/26 02:38:34;;;;;;;2.92;2.00;;;;;;;;;;5032049;28;20056;-71
2023/07/26 02:41:00;;;;;;;8.48;2.50;;;;;;;;;;5014514;28;20041;-71
2023/07/26 02:43:26;;;;;;;5.82;2.40;;;;;;;;;;5016588;28;20042;-71
2023/07/26 02:45:52;;;;;;;6.65;2.80;;;;;;;;;;5011441;28;20049;-71
2023/07/26 02:48:18;;;;;;;5.25;2.53;;;;;;;;;;4996874;28;20486;-71
2023/07/26 02:50:44;;;;;;;4.68;2.45;;;;;;;;;;5013505;28;20124;-71
2023/07/26 02:53:10;;;;;;;7.30;2.60;;;;;;;;;;5022137;28;20520;-71
2023/07/26 02:55:40;;;;;;;5.22;2.55;;;;;;;;;;4979595;28;20116;-71
2023/07/26 02:58:06;;;;;;;9.77;2.80;;;;;;;;;;5004802;28;20528;-71
2023/07/26 03:00:32;;;;;;;5.93;2.63;;;;;;;;;;5017246;28;20378;-71
2023/07/26 03:02:58;;;;;;;5.32;2.65;;;;;;;;;;5010148;28;20053;-71
2023/07/26 03:05:24;;;;;;;4.80;2.90;;;;;;;;;;5014177;28;20049;-71
2023/07/26 03:07:50;;;;;;;7.18;2.78;;;;;;;;;;5008997;28;20046;-71
2023/07/26 03:10:17;;;;;;;8.32;2.60;;;;;;;;;;4997126;28;20053;-71
2023/07/26 03:12:43;;;;;;;4.53;2.70;;;;;;;;;;5020226;28;20664;-71
2023/07/26 03:15:09;;;;;;;4.03;2.30;;;;;;;;;;5024237;28;20447;-71
2023/07/26 03:17:35;;;;;;;6.38;2.40;;;;;;;;;;5019121;28;20060;-71
2023/07/26 03:20:03;;;;;;;6.60;3.00;;;;;;;;;;5031359;28;20045;-71
2023/07/26 03:22:29;;;;;;;5.22;2.78;;;;;;;;;;4994605;28;21117;-71
2023/07/26 03:24:55;;;;;;;5.28;2.60;;;;;;;;;;5012212;28;20379;-71
2023/07/26 03:27:21;;;;;;;6.97;2.90;;;;;;;;;;4992002;28;20057;-71
2023/07/26 03:29:47;;;;;;;4.68;2.58;;;;;;;;;;5011583;28;20092;-71
2023/07/26 03:32:13;;;;;;;4.68;2.80;;;;;;;;;;5011763;28;20121;-71
2023/07/26 03:34:39;;;;;;;5.57;3.03;;;;;;;;;;5012723;28;20490;-71
2023/07/26 03:37:05;;;;;;;4.88;2.50;;;;;;;;;;5012577;28;20042;-71
2023/07/26 03:39:31;;;;;;;4.28;2.88;;;;;;;;;;5011926;28;20057;-70
2023/07/26 03:41:57;;;;;;;7.05;3.10;;;;;;;;;;5013037;28;20046;-70
2023/07/26 03:44:23;;;;;;;5.40;2.67;;;;;;;;;;5011294;28;20050;-70
2023/07/26 03:46:49;;;;;;;3.75;2.67;;;;;;;;;;5011618;28;20057;-71
2023/07/26 03:49:15;;;;;;;3.60;2.50;;;;;;;;;;5011329;28;20037;-70
2023/07/26 03:51:41;;;;;;;3.80;2.70;;;;;;;;;;5010965;28;20049;-71
2023/07/26 03:54:07;;;;;;;4.30;2.53;;;;;;;;;;5010465;28;20049;-71
2023/07/26 03:56:33;;;;;;;3.80;2.60;;;;;;;;;;5011086;28;20460;-71
2023/07/26 03:58:59;;;;;;;6.38;2.70;;;;;;;;;;4994384;28;20057;-71
2023/07/26 04:01:25;;;;;;;6.53;2.80;;;;;;;;;;5008135;28;20145;-71
2023/07/26 04:03:51;;;;;;;5.10;2.78;;;;;;;;;;5011150;28;20546;-71
2023/07/26 04:06:17;;;;;;;5.28;2.95;;;;;;;;;;5007423;28;20046;-71
2023/07/26 04:08:43;;;;;;;4.60;2.60;;;;;;;;;;5010531;28;20052;-71
2023/07/26 04:11:11;;;;;;;5.60;2.70;;;;;;;;;;5009256;28;20762;-71
2023/07/26 04:13:37;;;;;;;6.55;2.60;;;;;;;;;;5011657;28;20060;-70
2023/07/26 04:16:16;;;;;;;6.07;2.92;;;;;;;;;;5011326;28;20088;-71
2023/07/26 04:18:42;;;;;;;2.97;2.50;;;;;;;;;;5010707;28;20049;-71
2023/07/26 04:21:15;;;;;;;5.63;2.70;;;;;;;;;;5006676;28;20046;-71
2023/07/26 04:23:42;;;;;;;5.47;2.90;;;;;;;;;;5011515;28;20557;-70
2023/07/26 04:26:08;;;;;;;6.13;2.70;;;;;;;;;;5010722;28;20034;-70
2023/07/26 04:28:34;;;;;;;5.25;2.95;;;;;;;;;;5008737;28;20062;-71
2023/07/26 04:31:00;;;;;;;5.82;2.85;;;;;;;;;;5010704;28;20046;-70
2023/07/26 04:33:26;;;;;;;6.00;2.90;;;;;;;;;;5026997;28;20049;-70
2023/07/26 04:35:52;;;;;;;5.50;3.20;;;;;;;;;;5012359;28;20462;-71
2023/07/26 04:38:21;;;;;;;6.10;3.10;;;;;;;;;;5011540;28;20088;-71
2023/07/26 04:40:47;;;;;;;5.25;3.17;;;;;;;;;;5026212;28;20084;-71
2023/07/26 04:43:19;;;;;;;5.38;3.10;;;;;;;;;;5011874;28;20095;-70
2023/07/26 04:45:51;;;;;;;4.35;3.25;;;;;;;;;;5006262;28;20052;-70
2023/07/26 04:48:19;;;;;;;5.18;3.00;;;;;;;;;;5009068;28;20057;-71
2023/07/26 04:50:46;;;;;;;5.18;3.20;;;;;;;;;;5025701;28;20498;-71
2023/07/26 04:53:12;;;;;;;4.13;3.05;;;;;;;;;;5011121;28;20062;-71
2023/07/26 04:55:43;;;;;;;4.03;3.63;;;;;;;;;;5010952;28;20049;-70
2023/07/26 04:58:09;;;;;;;4.50;3.20;;;;;;;;;;5011782;28;20091;-71
2023/07/26 05:00:37;;;;;;;5.10;3.03;;;;;;;;;;5010853;28;20088;-70
2023/07/26 05:03:03;;;;;;;4.85;3.05;;;;;;;;;;5009983;28;20034;-70
2023/07/26 05:05:29;;;;;;;4.43;3.40;;;;;;;;;;5012069;28;20050;-70
2023/07/26 05:07:55;;;;;;;8.80;3.28;;;;;;;;;;4992740;28;20078;-70
2023/07/26 05:10:23;;;;;;;16.88;9.00;;;;;;;;;;5008402;28;20042;-70
2023/07/26 05:12:50;;;;;;;8.60;3.92;;;;;;;;;;5007600;28;20049;-71
2023/07/26 05:15:16;;;;;;;5.82;3.15;;;;;;;;;;5009931;28;20053;-70
2023/07/26 05:17:42;;;;;;;9.32;3.53;;;;;;;;;;5004607;28;20046;-71
2023/07/26 05:20:08;;;;;;;11.45;3.85;;;;;;;;;;5009207;28;20069;-70
2023/07/26 05:22:34;;;;;;;8.10;2.97;;;;;;;;;;5010096;28;20721;-71
2023/07/26 05:25:00;;;;;;;5.97;3.38;;;;;;;;;;5009899;28;20049;-70
2023/07/26 05:27:26;;;;;;;6.82;3.30;;;;;;;;;;5010074;28;20054;-71
2023/07/26 05:29:53;;;;;;;9.93;3.00;;;;;;;;;;5009969;28;20391;-71
2023/07/26 05:32:19;;;;;;;6.45;3.28;;;;;;;;;;5008491;28;20401;-71
2023/07/26 05:34:46;;;;;;;7.00;3.10;;;;;;;;;;5010387;28;20054;-71
2023/07/26 05:37:12;;;;;;;7.22;3.30;;;;;;;;;;5006405;28;20177;-70
2023/07/26 05:39:38;;;;;;;6.10;3.10;;;;;;;;;;5010940;28;20050;-71
2023/07/26 05:42:04;;;;;;;6.18;3.10;;;;;;;;;;5007623;28;20042;-71
2023/07/26 05:44:30;;;;;;;7.25;3.78;;;;;;;;;;5011009;28;20046;-71
2023/07/26 05:46:58;;;;;;;9.20;3.53;;;;;;;;;;5011000;28;20131;-71
2023/07/26 05:49:24;;;;;;;6.75;3.13;;;;;;;;;;5008212;28;20053;-71
2023/07/26 05:51:50;;;;;;;7.68;3.13;;;;;;;;;;5008739;28;20073;-71
2023/07/26 05:54:16;;;;;;;7.05;3.25;;;;;;;;;;5010085;28;20070;-70
2023/07/26 05:56:42;;;;;;;6.53;2.92;;;;;;;;;;5007014;28;20077;-71
2023/07/26 05:59:08;;;;;;;11.80;3.50;;;;;;;;;;5010227;28;20057;-70
2023/07/26 06:01:34;;;;;;;12.13;3.53;;;;;;;;;;5010317;28;20153;-70
2023/07/26 06:04:00;;;;;;;10.93;3.78;;;;;;;;;;5010772;28;20049;-71
2023/07/26 06:06:27;;;;;;;13.93;3.97;;;;;;;;;;5010952;28;20125;-70
2023/07/26 06:08:53;;;;;;;7.55;3.50;;;;;;;;;;5024399;28;20060;-71
2023/07/26 06:11:19;;;;;;;12.75;3.67;;;;;;;;;;5008480;28;20449;-71
2023/07/26 06:13:45;;;;;;;18.00;5.07;;;;;;;;;;5008520;28;20064;-71
2023/07/26 06:16:11;;;;;;;10.80;4.00;;;;;;;;;;5011692;28;20490;-71
2023/07/26 06:18:37;;;;;;;14.55;4.32;;;;;;;;;;5009221;28;20482;-71
2023/07/26 06:21:03;;;;;;;11.32;3.97;;;;;;;;;;5010070;28;20073;-71
2023/07/26 06:23:29;;;;;;;8.68;3.20;;;;;;;;;;5008568;28;20529;-70
2023/07/26 06:25:55;;;;;;;7.90;2.90;;;;;;;;;;5007037;28;20041;-71
2023/07/26 06:28:21;;;;;;;7.72;3.42;;;;;;;;;;5005263;28;20065;-71
2023/07/26 06:30:47;;;;;;;7.88;3.33;;;;;;;;;;4999377;28;20049;-70
2023/07/26 06:33:13;;;;;;;11.20;4.00;;;;;;;;;;5010767;28;20046;-71
2023/07/26 06:35:39;;;;;;;11.70;3.38;;;;;;;;;;5011499;28;20053;-71
2023/07/26 06:38:06;;;;;;;8.65;4.28;;;;;;;;;;5011539;28;20177;-71
2023/07/26 06:40:32;;;;;;;6.80;3.60;;;;;;;;;;5012636;28;20046;-71
2023/07/26 06:42:58;;;;;;;9.45;3.67;;;19.60;99.90;;;;;;5013943;28;20042;-70
2023/07/26 06:45:23;;;;;;;4.47;2.88;;;15.30;99.90;;;;;;5009602;28;20153;-71
2023/07/26 06:47:49;;;;;;;5.85;3.03;;;15.20;99.90;;;;;;5013148;28;20181;-71
2023/07/26 06:50:14;;;;;;;7.75;3.20;;;15.40;99.90;;;;;;5012757;28;20096;-70
2023/07/26 06:52:40;;;;;;;4.53;3.28;;;15.50;99.90;;;;;;5012447;28;20143;-71
2023/07/26 06:55:06;;;;;;;6.47;2.95;;;15.60;99.90;;;;;;5012900;28;20030;-70
2023/07/26 06:57:31;;;;;;;4.22;2.90;;;15.60;99.90;;;;;;5011483;28;20105;-71
2023/07/26 06:59:57;;;;;;;7.53;3.10;;;15.70;99.90;;;;;;5010554;28;20041;-71
2023/07/26 07:02:23;;;;;;;7.28;3.22;;;15.80;99.90;;;;;;5013608;28;20172;-71
2023/07/26 07:04:48;;;;;;;5.60;3.15;;;15.80;99.90;;;;;;5013664;28;20121;-71
2023/07/26 07:07:14;;;;;;;8.18;3.60;;;15.90;99.90;;;;;;5012196;28;20045;-71
2023/07/26 07:09:42;;;;;;;4.20;2.88;;;16.00;99.90;;;;;;5013553;28;20046;-70
2023/07/26 07:12:09;;;;;;;3.85;3.17;;;16.10;99.90;;;;;;5012195;28;20069;-70
2023/07/26 07:14:35;;;;;;;3.70;2.50;;;16.20;99.90;;;;;;5012883;28;20054;-71
2023/07/26 07:17:01;;;;;;;6.07;2.92;;;16.40;99.90;;;;;;5007572;28;20537;-70
2023/07/26 07:19:26;;;;;;;5.55;2.90;;;16.40;99.90;;;;;;5005821;28;20045;-71
2023/07/26 07:21:52;;;;;;;9.00;3.10;;;16.50;99.90;;;;;;5009490;28;20482;-71
2023/07/26 07:24:17;;;;;;;6.43;2.85;;;16.50;99.90;;;;;;5012814;28;20077;-70
2023/07/26 07:26:43;;;;;;;4.82;3.25;;;16.50;99.90;;;;;;5013504;28;20038;-71
2023/07/26 07:29:09;;;;;;;6.22;3.35;;;16.70;99.90;;;;;;5012118;28;20060;-70
2023/07/26 07:31:34;;;;;;;7.28;3.55;;;16.70;99.90;;;;;;5013526;28;20046;-71
2023/07/26 07:34:00;;;;;;;7.88;3.45;;;16.70;99.90;;;;;;5009121;28;20132;-71
2023/07/26 07:36:25;;;;;;;8.68;3.63;;;16.70;99.90;;;;;;5012427;28;20100;-71
2023/07/26 07:38:51;;;;;;;5.97;3.20;;;16.80;99.90;;;;;;5010910;28;20042;-70
2023/07/26 07:41:17;;;;;;;5.57;3.05;;;16.90;99.90;;;;;;5013462;28;20099;-71
2023/07/26 07:43:42;;;;;;;4.53;3.05;;;16.80;99.90;;;;;;5009913;28;20116;-71
2023/07/26 07:46:08;;;;;;;6.95;3.35;;;16.80;99.90;;;;;;5012545;28;20060;-71
2023/07/26 07:48:34;;;;;;;9.88;3.50;;;16.80;99.90;;;;;;5012467;28;20050;-71
2023/07/26 07:51:00;;;;;;;5.43;3.05;;;16.70;99.90;;;;;;5011216;28;20065;-71
2023/07/26 07:53:26;;;;;;;4.72;2.97;;;16.70;99.90;;;;;;5013812;28;20442;-71
2023/07/26 07:55:51;;;;;;;5.63;2.75;;;16.70;99.90;;;;;;5013096;28;20470;-71
2023/07/26 07:58:17;;;;;;;8.23;3.00;;;16.60;99.90;;;;;;5011777;28;20107;-71
2023/07/26 08:00:43;;;;;;;10.43;3.40;;;16.70;99.90;;;;;;5008794;28;20042;-72
2023/07/26 08:03:09;;;;;;;6.95;3.58;;;16.70;99.90;;;;;;5010942;28;20037;-70
2023/07/26 08:05:35;;;;;;;6.32;3.30;;;16.70;99.90;;;;;;5011901;28;20054;-71
2023/07/26 08:08:01;;;;;;;5.15;3.08;;;16.70;99.90;;;;;;5008765;28;20049;-71
2023/07/26 08:10:27;;;;;;;13.07;3.88;;;16.60;99.90;;;;;;5011627;28;20127;-71
2023/07/26 08:12:52;;;;;;;23.52;5.25;;;16.50;99.90;;;;;;5012006;28;20045;-70
2023/07/26 08:15:18;;;;;;;14.00;4.38;;;16.40;99.90;;;;;;5013099;28;20046;-71
2023/07/26 08:17:44;;;;;;;12.82;3.80;;;16.20;99.90;;;;;;5012239;28;20038;-71
2023/07/26 08:20:11;;;;;;;13.35;3.88;;;16.10;99.90;;;;;;5011528;28;20078;-71
2023/07/26 08:22:37;;;;;;;15.75;3.80;;;16.10;99.90;;;;;;5012312;28;20046;-71
2023/07/26 08:25:03;;;;;;;8.57;3.20;;;15.90;99.90;;;;;;5010501;28;20128;-71
2023/07/26 08:27:29;;;;;;;11.18;3.83;;;16.00;99.90;;;;;;5012949;28;20140;-71
2023/07/26 08:29:55;;;;;;;6.68;3.65;;;16.00;99.90;;;;;;5012778;28;20049;-71
2023/07/26 08:32:21;;;;;;;5.88;3.65;;;16.00;99.90;;;;;;5010114;28;20100;-71
2023/07/26 08:34:46;;;;;;;6.22;3.75;;;16.00;99.90;;;;;;5011488;28;20073;-71
2023/07/26 08:37:12;;;;;;;10.27;4.63;;;16.00;99.90;;;;;;5013048;28;20441;-71
2023/07/26 08:39:38;;;;;;;9.88;4.22;;;16.00;99.90;;;;;;5006434;28;20050;-71
2023/07/26 08:42:04;;;;;;;12.02;4.25;;;16.10;99.90;;;;;;5011380;28;20434;-71
2023/07/26 08:44:31;;;;;;;11.25;4.47;;;16.20;99.90;;;;;;5012567;28;20141;-71
2023/07/26 08:46:58;;;;;;;10.30;3.85;;;16.40;99.90;;;;;;5006735;28;20042;-70
2023/07/26 08:49:24;;;;;;;10.30;4.22;;;16.50;99.90;;;;;;5003567;28;20122;-70
2023/07/26 08:51:50;;;;;;;4.80;3.40;;;16.80;99.90;;;;;;5012532;28;20441;-71
2023/07/26 08:54:16;;;;;;;6.18;3.72;;;17.00;99.90;;;;;;5009984;28;20144;-71
2023/07/26 08:56:42;;;;;;;4.97;3.20;;;17.20;99.90;;;;;;5008603;28;20122;-71
2023/07/26 08:59:08;;;;;;;4.82;3.15;;;;;;;;;;5011327;28;20065;-71
2023/07/26 09:01:34;;;;;;;5.88;3.13;;;;;;;;;;4995777;28;20153;-71
2023/07/26 09:04:00;;;;;;;3.50;2.67;;;;;;;;;;5010800;28;20053;-71
2023/07/26 09:06:26;;;;;;;5.35;2.50;;;;;;;;;;5009944;28;20453;-71
2023/07/26 09:08:52;;;;;;;6.38;2.20;;;;;;;;;;5010181;28;20050;-71
2023/07/26 09:11:25;;;;;;;7.78;2.30;;;;;;;;;;5008727;28;20103;-71
2023/07/26 09:14:01;;;;;;;4.75;2.10;;;;;;;;;;5008408;28;20183;-71
2023/07/26 09:16:31;;;;;;;3.83;2.00;;;;;;;;;;5007571;28;20052;-71
2023/07/26 09:18:57;;;;;;;3.42;2.10;;;;;;;;;;4996970;28;20406;-71
2023/07/26 09:21:31;;;;;;;2.90;2.17;;;;;;;;;;4998515;28;20057;-71
2023/07/26 09:23:58;;;;;;;4.63;2.10;;;17.30;99.90;;;;;;5004270;28;20050;-71
2023/07/26 09:26:40;;;;;;;5.60;2.40;;;17.30;99.90;;;;;;5002943;28;20397;-71
2023/07/26 09:29:11;;;;;;;6.85;2.55;;;17.30;99.90;;;;;;5004903;28;20383;-71
2023/07/26 09:31:38;;;;;;;5.60;2.53;;;17.30;99.90;;;;;;5008679;28;20133;-71
2023/07/26 09:34:11;;;;;;;4.72;2.63;;;17.40;99.90;;;;;;5008744;28;20054;-71
2023/07/26 09:36:48;;;;;;;6.47;2.53;;;17.60;99.90;;;;;;5009736;28;20453;-70
2023/07/26 09:39:15;;;;;;;6.28;2.85;;;17.70;99.90;;;;;;5004469;28;20471;-71
2023/07/26 09:41:41;;;;;;;5.88;2.90;;;17.80;99.90;;;;;;5005643;28;20458;-70
2023/07/26 09:44:17;;;;;;;6.32;3.13;;;17.90;99.90;;;;;;5009975;28;20052;-71
2023/07/26 09:46:55;;;;;;;9.10;3.17;;;18.00;99.90;;;;;;5005108;28;20104;-71
2023/07/26 09:49:27;;;;;;;5.55;2.88;;;18.20;99.90;;;;;;5009655;28;20097;-71
2023/07/26 09:51:57;;;;;;;7.65;3.10;;;18.20;99.90;;;;;;5006231;28;20141;-71
2023/07/26 09:54:30;;;;;;;7.22;3.47;;;18.20;99.90;;;;;;5011343;28;20359;-71
2023/07/26 09:56:57;;;;;;;5.70;3.03;;;18.20;99.90;;;;;;5007669;28;20046;-71
2023/07/26 09:59:28;;;;;;;6.80;3.33;;;18.30;99.90;;;;;;4999321;28;20054;-71
2023/07/26 10:01:55;;;;;;;7.63;3.42;;;18.40;99.90;;;;;;5004674;28;20053;-71
2023/07/26 10:04:48;;;;;;;6.70;3.55;;;18.50;99.90;;;;;;5025480;28;20048;-72
2023/07/26 10:07:15;;;;;;;5.55;3.20;;;18.60;99.90;;;;;;5012507;28;20045;-71
2023/07/26 10:09:46;;;;;;;6.47;3.60;;;18.60;99.90;;;;;;5010103;28;20038;-71
2023/07/26 10:12:13;;;;;;;9.77;3.65;;;18.80;99.90;;;;;;5009912;28;20119;-71
2023/07/26 10:14:39;;;;;;;6.05;3.45;;;;;;;;;;5012991;28;20133;-71
2023/07/26 10:17:06;;;;;;;8.35;3.80;;;;;;;;;;5012928;28;20131;-71
2023/07/26 10:19:32;;;;;;;4.72;2.58;;;;;;;;;;5010904;28;20102;-71
2023/07/26 10:21:58;;;;;;;6.22;3.03;;;;;;;;;;5014348;28;20081;-72
2023/07/26 10:24:25;;;;;;;5.55;2.83;;;;;;;;;;5011264;28;20127;-72
2023/07/26 10:26:52;;;;;;;6.20;3.83;;;;;;;;;;5012659;28;20505;-71
2023/07/26 10:29:19;;;;;;;6.57;3.50;;;18.60;99.90;;;;;;5013775;28;20050;-72
2023/07/26 10:31:46;;;;;;;6.05;3.28;;;18.60;99.90;;;;;;5011444;28;20068;-72
2023/07/26 10:34:19;;;;;;;6.88;3.80;;;;;;;;;;5013953;28;20056;-72
2023/07/26 10:36:45;;;;;;;5.70;3.20;;;;;;;;;;4998093;28;20053;-72
2023/07/26 10:39:12;;;;;;;5.10;3.50;;;;;;;;;;5007051;28;20049;-71
2023/07/26 10:41:47;;;;;;;6.63;3.50;;;18.60;99.90;;;;;;5015051;28;20457;-71
2023/07/26 10:44:13;;;;;;;6.78;2.97;;;18.70;99.90;;;;;;5010548;28;20760;-72
2023/07/26 10:46:53;;;;;;;3.83;3.28;;;18.70;99.90;;;;;;5010161;28;20042;-72
2023/07/26 10:49:33;;;;;;;8.25;3.40;;;18.70;99.90;;;;;;5014319;28;20049;-71
2023/07/26 10:52:04;;;;;;;4.70;3.90;;;18.70;99.90;;;;;;5014437;28;20034;-72
2023/07/26 10:54:49;;;;;;;4.88;3.70;;;18.80;99.90;;;;;;5012802;28;20149;-72
2023/07/26 10:57:17;;;;;;;9.05;4.25;;;18.80;99.90;;;;;;5014818;28;20038;-72
2023/07/26 10:59:59;;;;;;;5.63;3.45;;;18.80;99.90;;;;;;5009785;28;20052;-73
2023/07/26 11:02:35;;;;;;;5.60;3.20;;;18.80;99.90;;;;;;5012579;28;20579;-72
2023/07/26 11:05:03;;;;;;;9.68;3.30;;;18.80;99.90;;;;;;5008119;28;20111;-72
2023/07/26 11:08:07;;;;;;;6.10;3.55;;;18.90;99.90;;;;;;5010536;28;20061;-72
2023/07/26 11:10:37;;;;;;;6.65;3.05;;;;;;;;;;4932677;29;20098;-72
2023/07/26 11:13:04;;;;;;;5.95;3.17;;;;;;;;;;4933756;29;20056;-73
2023/07/26 11:15:30;;;;;;;6.45;3.35;;;;;;;;;;4972922;28;20069;-72
2023/07/26 11:17:57;;;;;;;6.78;3.53;;;;;;;;;;5012730;28;20042;-72
2023/07/26 11:20:23;;;;;;;6.40;3.38;;;;;;;;;;5010238;28;20136;-72
2023/07/26 11:22:49;;;;;;;4.30;3.30;;;;;;;;;;5012590;28;20042;-73
2023/07/26 11:25:15;;;;;;;5.47;3.25;;;;;;;;;;5012160;28;20086;-72
2023/07/26 11:27:41;;;;;;;6.80;3.42;;;;;;;;;;5012325;28;20129;-72
2023/07/26 11:30:17;;;;;;;8.88;3.40;;;;;;;;;;5009979;28;20045;-72
2023/07/26 11:32:53;;;;;;;7.18;3.50;;;;;;;;;;5006890;28;20050;-72
2023/07/26 11:35:20;;;;;;;7.97;3.42;;;;;;;;;;5009542;28;20054;-72
2023/07/26 11:37:50;;;;;;;5.22;3.40;;;;;;;;;;5009861;28;20054;-73
2023/07/26 11:40:16;;;;;;;8.05;3.50;;;;;;;;;;5009748;28;20458;-72
2023/07/26 11:42:42;;;;;;;9.20;3.22;;;;;;;;;;5010619;28;20072;-72
2023/07/26 11:45:08;;;;;;;10.02;3.40;;;;;;;;;;5012281;28;20042;-72
2023/07/26 11:47:38;;;;;;;5.10;2.92;;;;;;;;;;5011629;28;20096;-72
2023/07/26 11:50:04;;;;;;;6.22;2.70;;;;;;;;;;5005694;28;20140;-72
2023/07/26 11:52:30;;;;;;;5.22;3.20;;;;;;;;;;5012428;28;20050;-72
2023/07/26 11:54:58;;;;;;;10.55;3.03;;;;;;;;;;5010398;28;20042;-72
2023/07/26 11:57:25;;;;;;;5.75;3.10;;;;;;;;;;4992146;28;20133;-72
2023/07/26 11:59:51;;;;;;;4.60;2.63;;;;;;;;;;4999960;28;20069;-72
2023/07/26 12:02:17;;;;;;;5.43;2.80;;;;;;;;;;5011506;28;20465;-72
2023/07/26 12:05:03;;;;;;;6.55;2.83;;;;;;;;;;5008170;28;20485;-72
2023/07/26 12:07:29;;;;;;;5.82;3.10;;;;;;;;;;5001857;28;20045;-72
2023/07/26 12:09:55;;;;;;;7.95;3.13;;;;;;;;;;5010085;28;20062;-72
2023/07/26 12:12:21;;;;;;;5.70;3.17;;;;;;;;;;5011572;28;20087;-72
2023/07/26 12:14:47;;;;;;;5.07;3.00;;;;;;;;;;5012904;28;20053;-72
2023/07/26 12:17:13;;;;;;;4.65;3.25;;;;;;;;;;5010873;28;20529;-72
2023/07/26 12:19:44;;;;;;;3.78;2.88;;;;;;;;;;5009150;28;20052;-72
2023/07/26 12:22:11;;;;;;;9.35;4.15;;;;;;;;;;5011044;28;20053;-72
2023/07/26 12:24:50;;;;;;;5.10;3.50;;;;;;;;;;5006709;28;20049;-72
2023/07/26 12:27:16;;;;;;;6.25;2.90;;;;;;;;;;5009476;28;20061;-72
2023/07/26 12:29:42;;;;;;;7.13;3.17;;;;;;;;;;5011245;28;20104;-72
2023/07/26 12:32:14;;;;;;;5.22;3.03;;;;;;;;;;5010930;28;20049;-72
2023/07/26 12:34:42;;;;;;;6.40;2.80;;;;;;;;;;5009079;28;20379;-72
2023/07/26 12:37:09;;;;;;;7.45;2.88;;;;;;;;;;5010913;28;20096;-72
2023/07/26 12:39:39;;;;;;;4.10;2.85;;;;;;;;;;5011365;28;20137;-72
2023/07/26 12:42:05;;;;;;;5.70;3.17;;;;;;;;;;5004878;28;20169;-72
2023/07/26 12:44:32;;;;;;;3.45;2.90;;;;;;;;;;5006848;28;20050;-72
2023/07/26 12:47:00;;;;;;;5.95;2.80;;;;;;;;;;5002206;28;20045;-72
2023/07/26 12:49:26;;;;;;;8.32;3.20;;;;;;;;;;5011383;28;20058;-72
2023/07/26 12:51:52;;;;;;;6.00;3.65;;;;;;;;;;5011185;28;20092;-72
2023/07/26 12:54:19;;;;;;;5.80;3.15;;;;;;;;;;5027205;28;20104;-72
2023/07/26 12:56:45;;;;;;;8.20;3.30;;;;;;;;;;5001621;28;20054;-72
2023/07/26 12:59:11;;;;;;;4.93;3.00;;;;;;;;;;4996752;28;20120;-72
2023/07/26 13:01:37;;;;;;;8.80;2.80;;;;;;;;;;5010324;28;20092;-72
2023/07/26 13:04:03;;;;;;;6.10;3.70;;;;;;;;;;5012584;28;20041;-72
2023/07/26 13:06:29;;;;;;;6.82;4.22;;;;;;;;;;4992439;28;20050;-72
2023/07/26 13:08:55;;;;;;;7.20;3.20;;;;;;;;;;5010904;28;20046;-72
2023/07/26 13:11:21;;;;;;;10.20;4.10;;;;;;;;;;5011879;28;20161;-72
2023/07/26 13:13:47;;;;;;;6.40;4.40;;;;;;;;;;5008166;28;20052;-72
2023/07/26 13:16:13;;;;;;;7.35;3.60;;;;;;;;;;5010561;28;20129;-72
2023/07/26 13:18:39;;;;;;;9.43;5.00;;;;;;;;;;5008485;28;20073;-72
2023/07/26 13:21:05;;;;;;;8.80;4.43;;;;;;;;;;4995392;28;20108;-72
2023/07/26 13:23:31;;;;;;;10.77;5.63;;;;;;;;;;5006162;28;20046;-72
2023/07/26 13:25:57;;;;;;;11.35;6.00;;;;;;;;;;4999121;28;20513;-72
2023/07/26 13:28:23;;;;;;;17.90;7.45;;;;;;;;;;4990351;28;20051;-72
2023/07/26 13:30:49;;;;;;;12.23;4.53;;;;;;;;;;5006556;28;20057;-72
2023/07/26 13:33:15;;;;;;;14.48;5.55;;;;;;;;;;4999375;28;20076;-72
2023/07/26 13:35:41;;;;;;;6.97;3.97;;;;;;;;;;4991533;28;20137;-72
2023/07/26 13:38:07;;;;;;;10.20;4.40;;;;;;;;;;5007908;28;20080;-72
2023/07/26 13:40:33;;;;;;;8.05;4.50;;;;;;;;;;5026678;28;20050;-72
2023/07/26 13:43:00;;;;;;;7.25;4.90;;;;;;;;;;5015123;28;20049;-72
2023/07/26 13:45:26;;;;;;;8.05;4.38;;;;;;;;;;5015895;28;20137;-72
2023/07/26 13:47:52;;;;;;;9.57;4.78;;;;;;;;;;5012358;28;20042;-72
2023/07/26 13:50:18;;;;;;;13.57;5.72;;;;;;;;;;5012076;28;20046;-72
2023/07/26 13:52:44;;;;;;;6.38;3.88;;;;;;;;;;5013028;28;20066;-72
2023/07/26 13:55:10;;;;;;;7.22;4.32;;;;;;;;;;5012160;28;20081;-72
2023/07/26 13:57:36;;;;;;;8.07;3.72;;;;;;;;;;5014340;28;20104;-72
2023/07/26 14:00:03;;;;;;;5.50;3.42;;;;;;;;;;5014257;28;20041;-72
2023/07/26 14:02:29;;;;;;;6.95;4.00;;;;;;;;;;5014664;28;20052;-72
2023/07/26 14:04:55;;;;;;;5.90;3.40;;;;;;;;;;5013207;28;20046;-72
2023/07/26 14:07:21;;;;;;;7.10;3.80;;;;;;;;;;5007669;28;20125;-72
2023/07/26 14:09:47;;;;;;;5.88;3.78;;;;;;;;;;5011192;28;20088;-72